createdAt,value
2017-04-16T00:00:50.478Z,0
2017-04-16T00:01:50.518Z,0
2017-04-16T00:02:50.862Z,0
2017-04-16T00:03:51.153Z,0
2017-04-16T00:04:50.927Z,0
2017-04-16T00:05:50.632Z,0
2017-04-16T00:06:50.350Z,0
2017-04-16T00:07:50.997Z,0
2017-04-16T00:08:51.284Z,0
2017-04-16T00:09:51.050Z,0
2017-04-16T00:10:50.769Z,0
2017-04-16T00:11:51.101Z,0
2017-04-16T00:12:50.843Z,0
2017-04-16T00:13:51.416Z,0
2017-04-16T00:14:51.193Z,0
2017-04-16T00:15:51.214Z,0
2017-04-16T00:16:51.245Z,0
2017-04-16T00:17:51.271Z,0
2017-04-16T00:18:50.928Z,0
2017-04-16T00:19:51.330Z,0
2017-04-16T00:20:51.050Z,0
2017-04-16T00:21:50.753Z,0
2017-04-16T00:22:50.786Z,0
2017-04-16T00:23:51.691Z,0
2017-04-16T00:24:51.156Z,0
2017-04-16T00:25:51.202Z,0
2017-04-16T00:26:50.898Z,0
2017-04-16T00:27:50.921Z,0
2017-04-16T00:28:51.820Z,0
2017-04-16T00:29:51.600Z,0
2017-04-16T00:30:51.313Z,0
2017-04-16T00:31:51.342Z,0
2017-04-16T00:32:51.368Z,0
2017-04-16T00:33:51.638Z,0
2017-04-16T00:34:51.111Z,0
2017-04-16T00:35:51.140Z,0
2017-04-16T00:36:51.474Z,0
2017-04-16T00:37:51.819Z,0
2017-04-16T00:38:52.145Z,0
2017-04-16T00:39:51.259Z,0
2017-04-16T00:40:51.589Z,0
2017-04-16T00:41:51.953Z,0
2017-04-16T00:42:51.960Z,0
2017-04-16T00:43:51.911Z,0
2017-04-16T00:44:51.689Z,0
2017-04-16T00:45:51.740Z,0
2017-04-16T00:46:51.756Z,0
2017-04-16T00:47:51.773Z,0
2017-04-16T00:48:52.058Z,0
2017-04-16T00:49:52.151Z,0
2017-04-16T00:50:51.864Z,0
2017-04-16T00:51:51.896Z,0
2017-04-16T00:52:51.908Z,0
2017-04-16T00:53:52.186Z,0
2017-04-16T00:54:51.972Z,0
2017-04-16T00:55:51.995Z,0
2017-04-16T00:56:52.030Z,0
2017-04-16T00:57:52.365Z,0
2017-04-16T00:58:52.326Z,0
2017-04-16T00:59:52.419Z,0
2017-04-16T01:00:52.447Z,0
2017-04-16T01:01:52.480Z,0
2017-04-16T01:02:52.223Z,0
2017-04-16T01:03:52.470Z,0
2017-04-16T01:04:52.823Z,0
2017-04-16T01:05:52.901Z,0
2017-04-16T01:08:07.387Z,0
2017-04-16T01:08:55.425Z,0
2017-04-16T01:10:07.588Z,0
2017-04-16T01:10:53.610Z,0
2017-04-16T01:13:07.514Z,0
2017-04-16T01:15:22.255Z,0
2017-04-16T01:16:08.758Z,0
2017-04-16T01:17:09.010Z,0
2017-04-16T01:18:08.177Z,0
2017-04-16T01:19:08.362Z,0
2017-04-16T01:21:53.594Z,0
2017-04-16T01:23:07.913Z,0
2017-04-16T01:24:08.041Z,0
2017-04-16T01:24:53.871Z,0
2017-04-16T01:25:53.421Z,0
2017-04-16T01:26:53.612Z,0
2017-04-16T01:27:53.883Z,0
2017-04-16T01:29:22.381Z,0
2017-04-16T01:30:53.530Z,0
2017-04-16T01:31:53.372Z,0
2017-04-16T01:33:07.960Z,0
2017-04-16T01:33:53.499Z,0
2017-04-16T01:34:54.001Z,0
2017-04-16T01:37:08.053Z,0
2017-04-16T01:37:57.410Z,0
2017-04-16T01:40:09.617Z,0
2017-04-16T01:40:54.547Z,0
2017-04-16T01:42:10.071Z,0
2017-04-16T01:42:53.534Z,0
2017-04-16T01:44:13.057Z,0
2017-04-16T01:46:18.495Z,0
2017-04-16T01:47:17.586Z,0
2017-04-16T01:48:18.604Z,0
2017-04-16T01:49:03.067Z,0
2017-04-16T01:50:12.409Z,0
2017-04-16T01:51:03.152Z,0
2017-04-16T01:52:18.587Z,0
2017-04-16T01:53:03.278Z,0
2017-04-16T01:55:02.761Z,0
2017-04-16T01:56:31.976Z,0
2017-04-16T01:57:46.635Z,0
2017-04-16T01:59:31.525Z,0
2017-04-16T02:00:17.189Z,0
2017-04-16T02:01:17.435Z,0
2017-04-16T02:02:03.070Z,0
2017-04-16T02:03:04.352Z,0
2017-04-16T02:04:03.725Z,0
2017-04-16T02:05:17.704Z,0
2017-04-16T02:06:32.483Z,0
2017-04-16T02:07:32.505Z,0
2017-04-16T02:08:04.699Z,0
2017-04-16T02:11:18.256Z,0
2017-04-16T02:12:33.071Z,0
2017-04-16T02:14:17.726Z,0
2017-04-16T02:15:04.224Z,0
2017-04-16T02:16:18.609Z,0
2017-04-16T02:18:20.118Z,0
2017-04-16T02:19:25.912Z,0
2017-04-16T02:23:14.155Z,0
2017-04-16T02:24:27.254Z,0
2017-04-16T02:25:27.215Z,0
2017-04-16T02:26:27.497Z,0
2017-04-16T02:27:33.033Z,0
2017-04-16T02:28:14.076Z,0
2017-04-16T02:29:12.782Z,0
2017-04-16T02:30:13.687Z,0
2017-04-16T02:31:12.847Z,0
2017-04-16T02:34:51.211Z,0
2017-04-16T02:35:36.677Z,0
2017-04-16T02:36:22.069Z,0
2017-04-16T02:38:00.345Z,0
2017-04-16T02:38:36.856Z,0
2017-04-16T02:40:21.948Z,0
2017-04-16T02:41:40.284Z,0
2017-04-16T02:42:22.445Z,0
2017-04-16T02:43:36.761Z,0
2017-04-16T02:45:31.505Z,0
2017-04-16T02:46:25.768Z,0
2017-04-16T02:47:43.478Z,0
2017-04-16T02:49:22.488Z,0
2017-04-16T02:51:22.572Z,0
2017-04-16T02:52:51.071Z,0
2017-04-16T02:54:21.634Z,0
2017-04-16T02:55:36.770Z,0
2017-04-16T02:58:46.370Z,0
2017-04-16T03:00:00.084Z,0
2017-04-16T03:01:46.417Z,0
2017-04-16T03:02:44.920Z,0
2017-04-16T03:04:46.389Z,0
2017-04-16T03:06:00.741Z,0
2017-04-16T03:06:45.044Z,0
2017-04-16T03:09:01.892Z,0
2017-04-16T03:10:00.574Z,0
2017-04-16T03:10:46.745Z,0
2017-04-16T03:12:00.854Z,0
2017-04-16T03:13:46.323Z,0
2017-04-16T03:14:52.420Z,0
2017-04-16T03:15:46.600Z,0
2017-04-16T03:16:45.687Z,0
2017-04-16T03:17:45.393Z,0
2017-04-16T03:18:45.676Z,0
2017-04-16T03:19:45.140Z,0
2017-04-16T03:20:45.482Z,0
2017-04-16T03:21:45.505Z,0
2017-04-16T03:22:45.531Z,0
2017-04-16T03:23:46.327Z,0
2017-04-16T03:24:45.898Z,0
2017-04-16T03:25:45.926Z,0
2017-04-16T03:26:45.330Z,0
2017-04-16T03:27:45.986Z,0
2017-04-16T03:28:45.380Z,0
2017-04-16T03:29:45.719Z,0
2017-04-16T03:30:46.092Z,0
2017-04-16T03:31:46.085Z,0
2017-04-16T03:32:45.808Z,0
2017-04-16T03:33:45.827Z,0
2017-04-16T03:37:22.136Z,0
2017-04-16T03:40:58.531Z,0
2017-04-16T03:41:58.374Z,0
2017-04-16T03:42:45.268Z,0
2017-04-16T03:44:43.924Z,0
2017-04-16T03:46:59.925Z,0
2017-04-16T03:47:43.981Z,0
2017-04-16T03:49:27.237Z,0
2017-04-16T03:49:59.475Z,0
2017-04-16T03:51:12.931Z,0
2017-04-16T03:55:13.906Z,0
2017-04-16T03:55:58.486Z,0
2017-04-16T03:56:48.401Z,0
2017-04-16T03:57:45.030Z,0
2017-04-16T03:58:44.016Z,0
2017-04-16T03:59:58.250Z,0
2017-04-16T04:00:44.188Z,0
2017-04-16T04:02:13.222Z,0
2017-04-16T04:02:58.694Z,0
2017-04-16T04:04:03.199Z,0
2017-04-16T04:04:59.789Z,0
2017-04-16T04:06:44.900Z,0
2017-04-16T04:08:59.325Z,0
2017-04-16T04:09:44.575Z,0
2017-04-16T04:10:44.864Z,0
2017-04-16T04:11:59.381Z,0
2017-04-16T04:12:45.455Z,0
2017-04-16T04:14:46.513Z,0
2017-04-16T04:16:00.495Z,0
2017-04-16T04:17:00.331Z,0
2017-04-16T04:18:59.445Z,0
2017-04-16T04:20:17.145Z,4
2017-04-16T04:20:59.685Z,4
2017-04-16T04:21:59.858Z,4
2017-04-16T04:22:57.165Z,0
2017-04-16T04:23:48.565Z,4
2017-04-16T04:25:01.749Z,4
2017-04-16T04:27:14.125Z,8
2017-04-16T04:27:59.599Z,8
2017-04-16T04:29:02.684Z,8
2017-04-16T04:30:13.974Z,12
2017-04-16T04:31:00.257Z,12
2017-04-16T04:32:00.318Z,12
2017-04-16T04:36:00.222Z,20
2017-04-16T04:37:28.951Z,24
2017-04-16T04:38:14.461Z,24
2017-04-16T04:44:17.554Z,40
2017-04-16T04:46:17.186Z,48
2017-04-16T04:48:23.496Z,52
2017-04-16T04:50:09.166Z,56
2017-04-16T04:51:12.907Z,56
2017-04-16T04:52:24.019Z,64
2017-04-16T04:55:12.640Z,76
2017-04-16T04:56:11.671Z,80
2017-04-16T04:57:09.364Z,88
2017-04-16T04:58:10.036Z,96
2017-04-16T04:59:11.717Z,108
2017-04-16T05:01:14.589Z,120
2017-04-16T05:02:39.078Z,128
2017-04-16T05:05:39.129Z,148
2017-04-16T05:06:25.233Z,156
2017-04-16T05:07:09.989Z,160
2017-04-16T05:09:09.903Z,184
2017-04-16T05:11:26.381Z,212
2017-04-16T05:13:24.940Z,216
2017-04-16T05:15:13.353Z,216
2017-04-16T05:16:25.228Z,224
2017-04-16T05:18:10.370Z,232
2017-04-16T05:20:24.731Z,272
2017-04-16T05:24:19.964Z,304
2017-04-16T05:25:20.908Z,328
2017-04-16T05:26:19.867Z,352
2017-04-16T05:27:18.622Z,384
2017-04-16T05:28:35.243Z,432
2017-04-16T05:30:20.883Z,464
2017-04-16T05:31:19.969Z,464
2017-04-16T05:32:18.441Z,472
2017-04-16T05:34:18.863Z,492
2017-04-16T05:36:03.152Z,500
2017-04-16T05:36:18.860Z,504
2017-04-16T05:39:42.085Z,532
2017-04-16T05:40:41.147Z,564
2017-04-16T05:41:39.710Z,588
2017-04-16T05:42:25.800Z,584
2017-04-16T05:44:54.530Z,616
2017-04-16T05:48:12.392Z,712
2017-04-16T05:50:39.419Z,816
2017-04-16T05:53:29.574Z,736
2017-04-16T05:54:42.601Z,680
2017-04-16T05:55:47.945Z,660
2017-04-16T05:56:42.121Z,660
2017-04-16T05:57:45.440Z,660
2017-04-16T05:59:01.848Z,656
2017-04-16T05:59:57.846Z,656
2017-04-16T06:00:27.954Z,652
2017-04-16T06:01:27.988Z,648
2017-04-16T06:02:28.080Z,640
2017-04-16T06:03:42.625Z,652
2017-04-16T06:05:32.541Z,696
2017-04-16T06:08:52.753Z,824
2017-04-16T06:10:06.671Z,904
2017-04-16T06:10:25.065Z,928
2017-04-16T06:13:07.260Z,1060
2017-04-16T06:13:37.853Z,1068
2017-04-16T06:14:23.058Z,1064
2017-04-16T06:15:23.090Z,1092
2017-04-16T06:16:22.802Z,1140
2017-04-16T06:17:23.156Z,1192
2017-04-16T06:18:52.591Z,1252
2017-04-16T06:21:01.924Z,1324
2017-04-16T06:21:49.133Z,1344
2017-04-16T06:23:22.182Z,1364
2017-04-16T06:31:01.854Z,1488
2017-04-16T06:32:03.036Z,1488
2017-04-16T06:32:48.399Z,1444
2017-04-16T06:35:15.960Z,1384
2017-04-16T06:35:47.134Z,1416
2017-04-16T06:36:47.158Z,1504
2017-04-16T06:37:47.443Z,1588
2017-04-16T06:38:47.221Z,1616
2017-04-16T06:39:46.932Z,1608
2017-04-16T06:40:47.050Z,1556
2017-04-16T06:41:47.538Z,1516
2017-04-16T06:42:46.976Z,1528
2017-04-16T06:43:47.357Z,1548
2017-04-16T06:45:16.545Z,1604
2017-04-16T06:45:47.322Z,1612
2017-04-16T06:46:47.435Z,1636
2017-04-16T06:49:40.080Z,1604
2017-04-16T06:50:54.609Z,1632
2017-04-16T06:53:13.037Z,1632
2017-04-16T06:53:59.430Z,1652
2017-04-16T06:54:57.368Z,1684
2017-04-16T06:56:26.761Z,1728
2017-04-16T06:56:58.327Z,1728
2017-04-16T06:57:43.525Z,1708
2017-04-16T06:58:48.963Z,1668
2017-04-16T06:59:44.916Z,1616
2017-04-16T07:00:43.858Z,1572
2017-04-16T07:01:59.235Z,1552
2017-04-16T07:02:47.368Z,1612
2017-04-16T07:03:46.314Z,1728
2017-04-16T07:05:27.294Z,1804
2017-04-16T07:10:03.674Z,2116
2017-04-16T07:12:39.151Z,1948
2017-04-16T07:20:18.967Z,1880
2017-04-16T07:21:04.041Z,1892
2017-04-16T07:22:46.548Z,1996
2017-04-16T07:23:17.091Z,2020
2017-04-16T07:24:46.935Z,2024
2017-04-16T07:25:12.802Z,2028
2017-04-16T07:26:39.749Z,2020
2017-04-16T07:27:26.814Z,2080
2017-04-16T07:28:28.082Z,2164
2017-04-16T07:30:13.691Z,2208
2017-04-16T07:31:12.646Z,2104
2017-04-16T07:32:12.993Z,2060
2017-04-16T07:33:42.126Z,2092
2017-04-16T07:34:27.580Z,2164
2017-04-16T07:35:12.865Z,2220
2017-04-16T07:37:54.747Z,2448
2017-04-16T07:38:34.063Z,2520
2017-04-16T07:39:28.024Z,2620
2017-04-16T07:40:14.104Z,2700
2017-04-16T07:41:52.276Z,2724
2017-04-16T07:46:54.859Z,2840
2017-04-16T07:48:12.337Z,2784
2017-04-16T08:07:12.527Z,2928
2017-04-16T08:08:12.558Z,2912
2017-04-16T08:09:12.604Z,2908
2017-04-16T08:10:12.621Z,2896
2017-04-16T08:11:12.954Z,2840
2017-04-16T08:12:12.928Z,2728
2017-04-16T08:13:13.012Z,2608
2017-04-16T08:14:13.054Z,2536
2017-04-16T08:15:12.773Z,2588
2017-04-16T08:16:13.133Z,2632
2017-04-16T08:17:13.076Z,2676
2017-04-16T08:18:12.832Z,2724
2017-04-16T08:19:13.183Z,2772
2017-04-16T08:20:14.085Z,2756
2017-04-16T08:21:13.434Z,2748
2017-04-16T08:22:13.889Z,2740
2017-04-16T08:23:12.975Z,2716
2017-04-16T08:24:13.445Z,2728
2017-04-16T08:25:13.364Z,2760
2017-04-16T08:26:13.061Z,2772
2017-04-16T08:27:13.338Z,2808
2017-04-16T08:28:13.417Z,2868
2017-04-16T08:29:13.448Z,2868
2017-04-16T08:30:13.175Z,2772
2017-04-16T08:31:13.196Z,2824
2017-04-16T08:32:13.155Z,3092
2017-04-16T08:33:13.555Z,3220
2017-04-16T08:34:13.286Z,3272
2017-04-16T08:35:13.698Z,3264
2017-04-16T08:36:13.877Z,3172
2017-04-16T08:37:13.615Z,3104
2017-04-16T08:38:13.699Z,3128
2017-04-16T08:39:13.420Z,3296
2017-04-16T08:40:13.439Z,3436
2017-04-16T08:41:13.477Z,3436
2017-04-16T08:42:14.052Z,3412
2017-04-16T08:43:13.834Z,3308
2017-04-16T08:44:13.895Z,3236
2017-04-16T08:45:13.814Z,3300
2017-04-16T08:46:13.924Z,3372
2017-04-16T08:47:13.930Z,3320
2017-04-16T08:48:13.974Z,3172
2017-04-16T08:49:14.004Z,3112
2017-04-16T08:50:13.717Z,3172
2017-04-16T08:51:13.746Z,3200
2017-04-16T08:52:13.405Z,3196
2017-04-16T08:53:14.119Z,3204
2017-04-16T08:54:13.514Z,3292
2017-04-16T08:55:14.172Z,3412
2017-04-16T08:56:13.577Z,3548
2017-04-16T08:57:13.849Z,3684
2017-04-16T08:58:13.959Z,3756
2017-04-16T08:59:14.288Z,3848
2017-04-16T09:00:14.312Z,3892
2017-04-16T09:01:14.048Z,3896
2017-04-16T09:02:14.644Z,3868
2017-04-16T09:03:14.390Z,3748
2017-04-16T09:04:14.409Z,3736
2017-04-16T09:05:14.448Z,3888
2017-04-16T09:06:14.469Z,3652
2017-04-16T09:07:14.751Z,3568
2017-04-16T09:08:14.216Z,3536
2017-04-16T09:09:14.562Z,3360
2017-04-16T09:10:14.579Z,3212
2017-04-16T09:11:14.304Z,3108
2017-04-16T09:12:14.912Z,2876
2017-04-16T09:13:14.666Z,2680
2017-04-16T09:14:14.371Z,3208
2017-04-16T09:15:14.731Z,3832
2017-04-16T09:16:14.437Z,4068
2017-04-16T09:17:14.712Z,3952
2017-04-16T09:18:14.498Z,3784
2017-04-16T09:19:14.525Z,3984
2017-04-16T09:20:14.538Z,4112
2017-04-16T09:21:14.911Z,4216
2017-04-16T09:22:14.864Z,4232
2017-04-16T09:23:14.929Z,4200
2017-04-16T09:24:14.787Z,4160
2017-04-16T09:25:14.995Z,4164
2017-04-16T09:26:14.758Z,4200
2017-04-16T09:27:14.985Z,4244
2017-04-16T09:28:15.085Z,4296
2017-04-16T09:29:14.790Z,4256
2017-04-16T09:30:15.201Z,4292
2017-04-16T09:31:15.192Z,4376
2017-04-16T09:32:15.448Z,4452
2017-04-16T09:33:15.222Z,4260
2017-04-16T09:34:15.236Z,3928
2017-04-16T09:35:14.959Z,3768
2017-04-16T09:36:15.021Z,3824
2017-04-16T09:37:15.627Z,3492
2017-04-16T09:38:15.355Z,3212
2017-04-16T09:39:15.375Z,2764
2017-04-16T09:40:15.413Z,2484
2017-04-16T09:41:15.267Z,2664
2017-04-16T09:42:15.147Z,2780
2017-04-16T09:43:15.502Z,2792
2017-04-16T09:44:15.210Z,2676
2017-04-16T09:45:15.274Z,2476
2017-04-16T09:46:15.267Z,2628
2017-04-16T09:47:14.972Z,2516
2017-04-16T09:48:15.006Z,2396
2017-04-16T09:49:15.653Z,2184
2017-04-16T09:50:15.054Z,2184
2017-04-16T09:51:15.707Z,2340
2017-04-16T09:52:15.427Z,2516
2017-04-16T09:53:15.992Z,2256
2017-04-16T09:54:15.822Z,1888
2017-04-16T09:55:15.821Z,2208
2017-04-16T09:56:15.539Z,2620
2017-04-16T09:57:15.879Z,2888
2017-04-16T09:58:15.639Z,2852
2017-04-16T09:59:16.290Z,2788
2017-04-16T10:00:15.977Z,2904
2017-04-16T10:01:16.012Z,3212
2017-04-16T10:02:15.700Z,3384
2017-04-16T10:03:16.049Z,3468
2017-04-16T10:04:15.753Z,3236
2017-04-16T10:05:16.106Z,2496
2017-04-16T10:06:16.040Z,2128
2017-04-16T10:07:15.839Z,1960
2017-04-16T10:08:15.808Z,1860
2017-04-16T10:09:16.201Z,2536
2017-04-16T10:10:16.223Z,2780
2017-04-16T10:11:15.943Z,2276
2017-04-16T10:12:16.296Z,1864
2017-04-16T10:13:16.566Z,2024
2017-04-16T10:14:16.029Z,1808
2017-04-16T10:15:15.737Z,1720
2017-04-16T10:16:16.086Z,2368
2017-04-16T10:17:16.427Z,3680
2017-04-16T10:18:16.388Z,3876
2017-04-16T10:19:15.851Z,3304
2017-04-16T10:20:15.881Z,2856
2017-04-16T10:21:16.228Z,2708
2017-04-16T10:22:16.247Z,3092
2017-04-16T10:23:16.844Z,3260
2017-04-16T10:24:16.341Z,3624
2017-04-16T10:25:16.324Z,4464
2017-04-16T10:26:16.370Z,5072
2017-04-16T10:27:16.075Z,5360
2017-04-16T10:28:16.665Z,5412
2017-04-16T10:29:16.440Z,5352
2017-04-16T10:30:16.773Z,5216
2017-04-16T10:31:16.810Z,5140
2017-04-16T10:32:16.518Z,5156
2017-04-16T10:33:16.808Z,4992
2017-04-16T10:34:16.583Z,4524
2017-04-16T10:35:16.914Z,3508
2017-04-16T10:36:16.951Z,2772
2017-04-16T10:37:16.349Z,2192
2017-04-16T10:38:16.928Z,3184
2017-04-16T10:39:16.709Z,3904
2017-04-16T10:40:16.737Z,4316
2017-04-16T10:41:16.770Z,4844
2017-04-16T10:42:17.194Z,5296
2017-04-16T10:43:16.759Z,5472
2017-04-16T10:44:16.540Z,5632
2017-04-16T10:45:17.189Z,5600
2017-04-16T10:46:16.910Z,5260
2017-04-16T10:47:17.249Z,5016
2017-04-16T10:48:17.229Z,5460
2017-04-16T10:49:16.989Z,5764
2017-04-16T10:50:17.328Z,5852
2017-04-16T10:51:17.274Z,5928
2017-04-16T10:52:17.076Z,6240
2017-04-16T10:53:17.663Z,6200
2017-04-16T10:54:17.441Z,6116
2017-04-16T10:55:17.473Z,5980
2017-04-16T10:56:17.494Z,5744
2017-04-16T10:57:17.203Z,5004
2017-04-16T10:58:17.795Z,3500
2017-04-16T10:59:17.268Z,2268
2017-04-16T11:00:17.605Z,1768
2017-04-16T11:01:17.629Z,1516
2017-04-16T11:02:17.347Z,1356
2017-04-16T11:03:17.943Z,1156
2017-04-16T11:04:17.420Z,1196
2017-04-16T11:05:17.454Z,1372
2017-04-16T11:06:17.465Z,1588
2017-04-16T11:07:17.483Z,1748
2017-04-16T11:08:18.071Z,1612
2017-04-16T11:09:17.856Z,1524
2017-04-16T11:13:04.808Z,2928
2017-04-16T11:13:50.500Z,2708
2017-04-16T11:15:04.855Z,2248
2017-04-16T11:15:50.301Z,2236
2017-04-16T11:17:19.497Z,3508
2017-04-16T11:17:50.382Z,3940
2017-04-16T11:20:12.681Z,3912
2017-04-16T11:21:12.279Z,3588
2017-04-16T11:23:35.518Z,3944
2017-04-16T11:25:20.677Z,4336
2017-04-16T11:26:35.298Z,4348
2017-04-16T11:27:24.431Z,4228
2017-04-16T11:28:21.083Z,4068
2017-04-16T11:29:21.832Z,3932
2017-04-16T11:30:20.813Z,3832
2017-04-16T11:33:01.294Z,3980
2017-04-16T11:34:35.987Z,3972
2017-04-16T11:35:21.343Z,3944
2017-04-16T11:36:21.301Z,3884
2017-04-16T11:37:20.988Z,3768
2017-04-16T11:38:21.342Z,3712
2017-04-16T11:40:21.404Z,3816
2017-04-16T11:41:20.805Z,3772
2017-04-16T11:42:20.842Z,3908
2017-04-16T11:43:21.184Z,3868
2017-04-16T11:44:21.454Z,3892
2017-04-16T11:45:21.555Z,3844
2017-04-16T11:46:21.568Z,3472
2017-04-16T11:47:21.601Z,3068
2017-04-16T11:48:21.310Z,2884
2017-04-16T11:49:21.603Z,2512
2017-04-16T11:50:21.372Z,2152
2017-04-16T11:51:21.712Z,1800
2017-04-16T11:52:21.732Z,1396
2017-04-16T11:53:21.446Z,1032
2017-04-16T11:54:21.734Z,920
2017-04-16T11:55:21.823Z,1096
2017-04-16T11:56:21.535Z,1376
2017-04-16T11:57:21.877Z,1720
2017-04-16T11:58:21.897Z,2012
2017-04-16T11:59:21.866Z,2260
2017-04-16T12:00:21.646Z,2408
2017-04-16T12:01:22.118Z,2708
2017-04-16T12:02:22.005Z,2736
2017-04-16T12:03:21.717Z,2624
2017-04-16T12:04:22.002Z,2604
2017-04-16T12:05:22.091Z,2396
2017-04-16T12:06:22.168Z,2196
2017-04-16T12:07:22.154Z,2488
2017-04-16T12:08:22.178Z,2980
2017-04-16T12:09:22.466Z,3292
2017-04-16T12:10:22.233Z,3720
2017-04-16T12:11:22.261Z,3908
2017-04-16T12:12:22.288Z,3928
2017-04-16T12:13:21.998Z,4024
2017-04-16T12:14:22.293Z,4408
2017-04-16T12:15:22.058Z,5008
2017-04-16T12:16:22.396Z,4900
2017-04-16T12:17:22.425Z,4416
2017-04-16T12:18:22.145Z,3944
2017-04-16T12:19:22.110Z,3736
2017-04-16T12:20:22.202Z,4168
2017-04-16T12:21:22.227Z,4392
2017-04-16T12:22:22.564Z,4196
2017-04-16T12:23:22.273Z,4780
2017-04-16T12:24:22.902Z,5092
2017-04-16T12:25:22.639Z,4916
2017-04-16T12:26:22.049Z,4632
2017-04-16T12:27:22.397Z,4344
2017-04-16T12:28:22.410Z,4048
2017-04-16T12:29:23.006Z,3656
2017-04-16T12:30:22.785Z,3228
2017-04-16T12:31:22.540Z,2892
2017-04-16T12:32:22.520Z,2792
2017-04-16T12:33:22.553Z,2712
2017-04-16T12:34:22.829Z,2572
2017-04-16T12:35:22.918Z,2704
2017-04-16T12:36:22.772Z,2996
2017-04-16T12:37:22.976Z,3336
2017-04-16T12:38:22.997Z,3756
2017-04-16T12:39:23.286Z,3964
2017-04-16T12:40:23.085Z,3912
2017-04-16T12:41:22.457Z,3612
2017-04-16T12:42:23.111Z,3496
2017-04-16T12:43:22.833Z,3492
2017-04-16T12:44:22.811Z,3588
2017-04-16T12:45:22.898Z,3672
2017-04-16T12:46:23.218Z,3728
2017-04-16T12:47:22.931Z,3840
2017-04-16T12:48:23.281Z,4116
2017-04-16T12:49:23.245Z,4444
2017-04-16T12:50:23.334Z,4844
2017-04-16T12:51:23.050Z,5228
2017-04-16T12:52:23.384Z,5300
2017-04-16T12:53:23.113Z,4900
2017-04-16T12:54:23.700Z,4588
2017-04-16T12:55:23.470Z,4000
2017-04-16T12:56:23.526Z,3708
2017-04-16T12:57:23.213Z,3752
2017-04-16T12:58:23.229Z,3760
2017-04-16T12:59:23.205Z,3656
2017-04-16T13:00:23.609Z,3452
2017-04-16T13:01:23.330Z,3360
2017-04-16T13:02:23.674Z,3092
2017-04-16T13:03:23.384Z,2856
2017-04-16T13:04:23.660Z,2612
2017-04-16T13:05:24.279Z,2572
2017-04-16T13:06:23.458Z,2496
2017-04-16T13:07:23.807Z,2364
2017-04-16T13:08:23.831Z,2484
2017-04-16T13:09:23.482Z,2348
2017-04-16T13:10:23.576Z,2160
2017-04-16T13:11:23.922Z,2032
2017-04-16T13:12:23.972Z,1972
2017-04-16T13:13:24.015Z,2060
2017-04-16T13:14:24.838Z,2140
2017-04-16T13:15:23.409Z,2156
2017-04-16T13:16:25.206Z,1884
2017-04-16T13:17:23.771Z,1480
2017-04-16T13:18:24.107Z,1152
2017-04-16T13:19:24.063Z,876
2017-04-16T13:20:24.357Z,736
2017-04-16T13:21:23.886Z,740
2017-04-16T13:22:24.222Z,768
2017-04-16T13:23:23.936Z,844
2017-04-16T13:24:24.237Z,864
2017-04-16T13:25:23.989Z,904
2017-04-16T13:26:24.018Z,1052
2017-04-16T13:27:23.725Z,1244
2017-04-16T13:28:24.627Z,1628
2017-04-16T13:29:24.348Z,2896
2017-04-16T13:30:24.519Z,7020
2017-04-16T13:31:24.147Z,7832
2017-04-16T13:32:23.874Z,9240
2017-04-16T13:33:24.528Z,9256
2017-04-16T13:34:24.488Z,7376
2017-04-16T13:35:24.572Z,4912
2017-04-16T13:36:24.609Z,4520
2017-04-16T13:37:24.325Z,4976
2017-04-16T13:38:24.345Z,5908
2017-04-16T13:39:24.935Z,5992
2017-04-16T13:40:24.717Z,4892
2017-04-16T13:41:24.742Z,4800
2017-04-16T13:42:24.770Z,8416
2017-04-16T13:43:24.171Z,11144
2017-04-16T13:44:24.769Z,11720
2017-04-16T13:45:24.857Z,9972
2017-04-16T13:46:24.247Z,10152
2017-04-16T13:47:24.599Z,10884
2017-04-16T13:48:24.622Z,7720
2017-04-16T13:49:25.216Z,10452
2017-04-16T13:50:24.680Z,13556
2017-04-16T13:51:24.716Z,16028
2017-04-16T13:52:25.047Z,16104
2017-04-16T13:53:25.071Z,15428
2017-04-16T13:54:25.360Z,8908
2017-04-16T13:55:25.133Z,6684
2017-04-16T13:56:24.842Z,5072
2017-04-16T13:57:24.886Z,5548
2017-04-16T13:58:25.214Z,8172
2017-04-16T13:59:25.499Z,22368
2017-04-16T14:00:25.277Z,6676
2017-04-16T14:01:25.301Z,4444
2017-04-16T14:02:25.329Z,3292
2017-04-16T14:03:25.355Z,2532
2017-04-16T14:04:25.638Z,2152
2017-04-16T14:05:25.408Z,2160
2017-04-16T14:06:25.129Z,2312
2017-04-16T14:07:25.150Z,3248
2017-04-16T14:08:24.871Z,14636
2017-04-16T14:09:25.775Z,6016
2017-04-16T14:10:25.240Z,4224
2017-04-16T14:11:25.265Z,3276
2017-04-16T14:12:25.602Z,3676
2017-04-16T14:13:25.007Z,4368
2017-04-16T14:14:25.916Z,5136
2017-04-16T14:15:25.385Z,4988
2017-04-16T14:16:25.401Z,4844
2017-04-16T14:17:25.122Z,4452
2017-04-16T14:18:25.450Z,4080
2017-04-16T14:19:25.743Z,3392
2017-04-16T14:20:25.935Z,3072
2017-04-16T14:21:25.854Z,3320
2017-04-16T14:22:25.570Z,3868
2017-04-16T14:23:25.897Z,3776
2017-04-16T14:24:26.200Z,3192
2017-04-16T14:25:25.959Z,2764
2017-04-16T14:26:25.680Z,2820
2017-04-16T14:27:25.710Z,3284
2017-04-16T14:28:25.737Z,3768
2017-04-16T14:29:26.346Z,3684
2017-04-16T14:30:26.111Z,3828
2017-04-16T14:31:26.134Z,6036
2017-04-16T14:32:26.162Z,8264
2017-04-16T14:33:25.259Z,5092
2017-04-16T14:34:25.841Z,4328
2017-04-16T14:35:26.242Z,5160
2017-04-16T14:36:26.265Z,5332
2017-04-16T14:37:25.988Z,5480
2017-04-16T14:38:26.322Z,5852
2017-04-16T14:39:26.295Z,6336
2017-04-16T14:40:26.076Z,5424
2017-04-16T14:41:26.400Z,4704
2017-04-16T14:42:26.437Z,3172
2017-04-16T14:43:26.470Z,3356
2017-04-16T14:44:26.430Z,3088
2017-04-16T14:45:26.214Z,2972
2017-04-16T14:46:26.095Z,2844
2017-04-16T14:47:26.588Z,2680
2017-04-16T14:48:26.297Z,2176
2017-04-16T14:49:26.890Z,1456
2017-04-16T14:50:26.364Z,1860
2017-04-16T14:51:26.380Z,2608
2017-04-16T14:52:26.717Z,2820
2017-04-16T14:53:26.449Z,2704
2017-04-16T14:54:26.827Z,1932
2017-04-16T14:55:26.491Z,1016
2017-04-16T14:56:26.828Z,856
2017-04-16T14:57:26.858Z,1136
2017-04-16T14:58:26.889Z,1072
2017-04-16T14:59:26.562Z,956
2017-04-16T15:00:26.951Z,1028
2017-04-16T15:01:26.971Z,1060
2017-04-16T15:02:26.367Z,1144
2017-04-16T15:03:26.749Z,1252
2017-04-16T15:04:26.997Z,1260
2017-04-16T15:05:27.074Z,952
2017-04-16T15:06:26.799Z,848
2017-04-16T15:07:26.824Z,932
2017-04-16T15:08:27.172Z,820
2017-04-16T15:09:26.822Z,728
2017-04-16T15:10:26.910Z,672
2017-04-16T15:11:27.255Z,752
2017-04-16T15:12:26.967Z,864
2017-04-16T15:13:27.305Z,972
2017-04-16T15:14:27.580Z,1044
2017-04-16T15:15:27.359Z,1052
2017-04-16T15:16:27.386Z,1060
2017-04-16T15:17:27.416Z,1068
2017-04-16T15:18:27.179Z,1100
2017-04-16T15:19:27.725Z,1160
2017-04-16T15:20:27.182Z,1220
2017-04-16T15:21:27.214Z,1232
2017-04-16T15:22:26.932Z,1188
2017-04-16T15:23:27.272Z,992
2017-04-16T15:24:27.329Z,712
2017-04-16T15:25:27.639Z,620
2017-04-16T15:26:27.355Z,644
2017-04-16T15:27:27.385Z,752
2017-04-16T15:28:27.961Z,872
2017-04-16T15:29:27.858Z,980
2017-04-16T15:30:27.466Z,996
2017-04-16T15:31:27.176Z,1016
2017-04-16T15:32:27.851Z,1020
2017-04-16T15:33:27.582Z,964
2017-04-16T15:34:27.570Z,924
2017-04-16T15:35:27.557Z,900
2017-04-16T15:36:28.503Z,868
2017-04-16T15:37:28.311Z,856
2017-04-16T15:38:27.993Z,832
2017-04-16T15:39:27.389Z,876
2017-04-16T15:40:28.326Z,928
2017-04-16T15:41:27.450Z,912
2017-04-16T15:42:27.796Z,884
2017-04-16T15:43:27.878Z,904
2017-04-16T15:44:28.178Z,996
2017-04-16T15:45:28.445Z,1040
2017-04-16T15:46:28.426Z,1004
2017-04-16T15:47:28.247Z,936
2017-04-16T15:48:27.960Z,844
2017-04-16T15:49:28.302Z,740
2017-04-16T15:50:28.574Z,676
2017-04-16T15:51:28.349Z,660
2017-04-16T15:52:28.385Z,636
2017-04-16T15:53:28.094Z,572
2017-04-16T15:54:28.526Z,480
2017-04-16T15:55:29.050Z,444
2017-04-16T15:56:28.165Z,468
2017-04-16T15:57:28.199Z,456
2017-04-16T15:58:28.584Z,408
2017-04-16T15:59:27.955Z,388
2017-04-16T16:00:28.546Z,364
2017-04-16T16:01:28.327Z,348
2017-04-16T16:02:28.070Z,324
2017-04-16T16:03:28.260Z,296
2017-04-16T16:04:28.088Z,292
2017-04-16T16:05:28.687Z,328
2017-04-16T16:06:28.457Z,332
2017-04-16T16:07:28.806Z,312
2017-04-16T16:08:28.512Z,300
2017-04-16T16:09:28.216Z,312
2017-04-16T16:10:29.131Z,288
2017-04-16T16:11:28.591Z,256
2017-04-16T16:12:28.623Z,244